createdAt,value
2023-03-29T00:00:40.507Z,-1.45
2023-03-29T00:03:08.707Z,-1.41
2023-03-29T00:05:39.188Z,-1.40
2023-03-29T00:08:05.789Z,-1.40
2023-03-29T00:10:33.751Z,-1.38
2023-03-29T00:13:06.283Z,-1.38
2023-03-29T00:15:32.934Z,-1.44
2023-03-29T00:17:59.816Z,-1.47
2023-03-29T00:20:28.847Z,-1.46
2023-03-29T00:22:55.813Z,-1.53
2023-03-29T00:25:22.770Z,-1.42
2023-03-29T00:27:49.572Z,-1.43
2023-03-29T00:30:16.909Z,-1.42
2023-03-29T00:32:43.807Z,-1.34
2023-03-29T00:35:11.153Z,-1.31
2023-03-29T00:37:42.555Z,-1.31
2023-03-29T00:40:11.777Z,-1.32
2023-03-29T00:42:40.687Z,-1.24
2023-03-29T00:45:21.343Z,-1.14
2023-03-29T00:48:07.156Z,-1.17
2023-03-29T00:50:43.622Z,-1.12
2023-03-29T00:53:29.891Z,-1.13
2023-03-29T00:56:21.699Z,-1.16
2023-03-29T00:58:55.433Z,-1.12
2023-03-29T01:01:34.213Z,-1.12
2023-03-29T01:04:18.697Z,-1.10
2023-03-29T01:06:58.220Z,-0.99
2023-03-29T01:09:29.895Z,-1.00
2023-03-29T01:11:59.544Z,-1.02
2023-03-29T01:14:41.870Z,-1.12
2023-03-29T01:17:10.502Z,-1.06
2023-03-29T01:19:59.259Z,-1.04
2023-03-29T01:22:58.290Z,-1.09
2023-03-29T01:25:31.439Z,-1.06
2023-03-29T01:28:03.493Z,-1.17
2023-03-29T01:30:49.903Z,-1.13
2023-03-29T01:33:24.014Z,-1.09
2023-03-29T01:36:05.132Z,-1.17
2023-03-29T01:38:51.737Z,-1.18
2023-03-29T01:41:18.372Z,-1.14
2023-03-29T01:43:56.380Z,-1.22
2023-03-29T01:46:45.678Z,-1.25
2023-03-29T01:49:36.567Z,-1.31
2023-03-29T01:52:22.882Z,-1.32
2023-03-29T01:55:04.224Z,-1.27
2023-03-29T01:57:33.019Z,-1.29
2023-03-29T02:00:09.887Z,-1.36
2023-03-29T02:02:47.565Z,-1.35
2023-03-29T02:05:17.603Z,-1.34
2023-03-29T02:07:47.652Z,-1.36
2023-03-29T02:10:18.842Z,-1.35
2023-03-29T02:12:47.216Z,-1.37
2023-03-29T02:15:19.524Z,-1.35
2023-03-29T02:17:52.878Z,-1.36
2023-03-29T02:20:33.758Z,-1.32
2023-03-29T02:23:15.010Z,-1.60
2023-03-29T02:25:46.668Z,-1.64
2023-03-29T02:28:17.315Z,-1.53
2023-03-29T02:30:55.511Z,-1.63
2023-03-29T02:33:31.453Z,-1.44
2023-03-29T02:36:08.139Z,-1.44
2023-03-29T02:38:35.922Z,-1.39
2023-03-29T02:41:07.612Z,-1.44
2023-03-29T02:43:36.018Z,-1.43
2023-03-29T02:46:07.969Z,-1.44
2023-03-29T02:48:38.461Z,-1.45
2023-03-29T02:51:20.220Z,-1.48
2023-03-29T02:54:18.619Z,-1.49
2023-03-29T02:57:04.919Z,-1.51
2023-03-29T02:59:33.474Z,-1.62
2023-03-29T03:02:01.037Z,-1.45
2023-03-29T03:04:29.337Z,-1.56
2023-03-29T03:07:01.280Z,-1.60
2023-03-29T03:09:28.372Z,-1.69
2023-03-29T03:11:55.006Z,-1.61
2023-03-29T03:14:22.953Z,-1.50
2023-03-29T03:16:52.979Z,-1.55
2023-03-29T03:19:22.993Z,-1.51
2023-03-29T03:21:56.005Z,-1.53
2023-03-29T03:24:32.671Z,-1.57
2023-03-29T03:27:02.071Z,-1.57
2023-03-29T03:29:32.019Z,-1.56
2023-03-29T03:31:59.154Z,-1.63
2023-03-29T03:34:29.465Z,-1.67
2023-03-29T03:36:58.529Z,-1.64
2023-03-29T03:39:25.231Z,-1.68
2023-03-29T03:41:53.929Z,-1.71
2023-03-29T03:44:55.020Z,-1.73
2023-03-29T03:47:24.818Z,-1.82
2023-03-29T03:49:51.674Z,-1.89
2023-03-29T03:52:19.117Z,-1.77
2023-03-29T03:54:46.710Z,-1.77
2023-03-29T03:57:13.559Z,-1.80
2023-03-29T03:59:42.870Z,-1.85
2023-03-29T04:02:12.937Z,-1.90
2023-03-29T04:04:43.016Z,-1.98
2023-03-29T04:07:14.463Z,-2.00
2023-03-29T04:09:48.724Z,-1.87
2023-03-29T04:12:22.348Z,-1.76
2023-03-29T04:14:49.084Z,-1.76
2023-03-29T04:17:15.726Z,-1.79
2023-03-29T04:19:45.443Z,-1.78
2023-03-29T04:22:12.062Z,-1.82
2023-03-29T04:24:38.673Z,-1.87
2023-03-29T04:27:06.489Z,-1.85
2023-03-29T04:29:35.418Z,-1.92
2023-03-29T04:32:06.732Z,-1.87
2023-03-29T04:34:33.386Z,-1.88
2023-03-29T04:37:00.046Z,-1.88
2023-03-29T04:39:36.390Z,-2.00
2023-03-29T04:42:05.603Z,-2.15
2023-03-29T04:44:35.149Z,-2.24
2023-03-29T04:47:01.988Z,-2.20
2023-03-29T04:49:31.738Z,-2.09
2023-03-29T04:51:58.316Z,-2.07
2023-03-29T04:54:24.905Z,-1.86
2023-03-29T04:56:53.938Z,-2.04
2023-03-29T04:59:22.527Z,-1.86
2023-03-29T05:01:55.277Z,-1.81
2023-03-29T05:04:22.020Z,-1.77
2023-03-29T05:06:54.099Z,-1.93
2023-03-29T05:09:23.347Z,-1.73
2023-03-29T05:11:52.632Z,-1.71
2023-03-29T05:14:19.261Z,-1.85
2023-03-29T05:16:49.069Z,-1.87
2023-03-29T05:19:19.118Z,-1.64
2023-03-29T05:21:57.384Z,-1.55
2023-03-29T05:24:24.018Z,-1.93
2023-03-29T05:26:53.421Z,-1.71
2023-03-29T05:29:24.977Z,-1.56
2023-03-29T05:31:54.793Z,-1.75
2023-03-29T05:34:25.118Z,-1.66
2023-03-29T05:36:54.260Z,-1.62
2023-03-29T05:39:21.207Z,-1.59
2023-03-29T05:41:52.692Z,-1.48
2023-03-29T05:44:19.467Z,-1.41
2023-03-29T05:46:52.419Z,-1.53
2023-03-29T05:49:19.164Z,-1.36
2023-03-29T05:51:48.917Z,-1.61
2023-03-29T05:54:17.791Z,-1.72
2023-03-29T05:56:46.244Z,-1.52
2023-03-29T05:59:16.597Z,-1.51
2023-03-29T06:01:45.478Z,-1.72
2023-03-29T06:04:15.863Z,-1.60
2023-03-29T06:06:42.632Z,-1.47
2023-03-29T06:09:09.876Z,-1.44
2023-03-29T06:11:36.591Z,-1.46
2023-03-29T06:14:03.515Z,-1.43
2023-03-29T06:16:33.894Z,-1.60
2023-03-29T06:19:04.699Z,-1.92
2023-03-29T06:21:36.576Z,-2.11
2023-03-29T06:24:06.939Z,-2.28
2023-03-29T06:26:33.727Z,-2.39
2023-03-29T06:29:00.328Z,-2.18
2023-03-29T06:31:27.167Z,-2.06
2023-03-29T06:33:53.791Z,-1.94
2023-03-29T06:36:23.352Z,-1.84
2023-03-29T06:38:56.951Z,-1.78
2023-03-29T06:41:25.133Z,-1.68
2023-03-29T06:43:51.870Z,-1.62
2023-03-29T06:46:26.420Z,-1.68
2023-03-29T06:48:53.462Z,-1.79
2023-03-29T06:51:23.373Z,-1.51
2023-03-29T06:53:56.249Z,-1.73
2023-03-29T06:56:26.539Z,-1.39
2023-03-29T06:58:58.491Z,-1.20
2023-03-29T07:01:25.143Z,-0.89
2023-03-29T07:03:53.730Z,-1.14
2023-03-29T07:06:24.328Z,-0.74
2023-03-29T07:08:52.479Z,-0.55
2023-03-29T07:11:20.478Z,-0.81
2023-03-29T07:13:49.286Z,-0.73
2023-03-29T07:16:19.442Z,-0.40
2023-03-29T07:18:48.553Z,-0.43
2023-03-29T07:21:17.533Z,-0.25
2023-03-29T07:23:46.263Z,-0.72
2023-03-29T07:26:28.828Z,0.04
2023-03-29T07:28:58.467Z,0.40
2023-03-29T07:31:30.531Z,0.28
2023-03-29T07:36:43.841Z,0.37
2023-03-29T07:39:12.972Z,0.45
2023-03-29T07:41:39.568Z,-0.21
2023-03-29T07:44:11.356Z,0.15
2023-03-29T07:46:41.119Z,0.40
2023-03-29T07:49:08.233Z,0.47
2023-03-29T07:51:39.318Z,0.47
2023-03-29T07:54:09.311Z,0.33
2023-03-29T07:56:39.024Z,0.09
2023-03-29T07:59:10.224Z,0.46
2023-03-29T08:01:41.140Z,0.82
2023-03-29T08:04:08.114Z,0.63
2023-03-29T08:06:38.779Z,0.50
2023-03-29T08:09:07.021Z,0.78
2023-03-29T08:11:40.758Z,0.64
2023-03-29T08:14:09.492Z,0.91
2023-03-29T08:16:49.311Z,0.94
2023-03-29T08:19:26.723Z,0.85
2023-03-29T08:21:56.661Z,0.47
2023-03-29T08:24:33.883Z,0.53
2023-03-29T08:27:00.815Z,1.05
2023-03-29T08:29:30.473Z,1.05
2023-03-29T08:31:58.413Z,0.58
2023-03-29T08:34:25.106Z,0.40
2023-03-29T08:36:53.125Z,0.27
2023-03-29T08:39:19.986Z,-0.21
2023-03-29T08:41:46.713Z,-0.52
2023-03-29T08:44:20.500Z,-0.55
2023-03-29T08:47:03.165Z,0.10
2023-03-29T08:49:30.955Z,0.82
2023-03-29T08:52:07.967Z,1.13
2023-03-29T08:54:43.701Z,0.91
2023-03-29T08:57:22.835Z,0.42
2023-03-29T08:59:58.025Z,0.69
2023-03-29T09:02:29.799Z,1.14
2023-03-29T09:05:08.002Z,0.98
2023-03-29T09:07:37.557Z,0.60
2023-03-29T09:10:04.507Z,1.11
2023-03-29T09:12:57.308Z,1.32
2023-03-29T09:16:20.851Z,0.64
2023-03-29T09:19:29.036Z,0.81
2023-03-29T09:22:17.953Z,0.60
2023-03-29T09:24:56.516Z,1.07
2023-03-29T09:27:39.399Z,1.21
2023-03-29T09:30:12.173Z,1.33
2023-03-29T09:33:07.921Z,1.77
2023-03-29T09:35:43.550Z,0.90
2023-03-29T09:38:16.370Z,1.03
2023-03-29T09:40:59.467Z,0.90
2023-03-29T09:43:36.203Z,1.64
2023-03-29T09:46:06.804Z,1.88
2023-03-29T09:48:41.029Z,1.25
2023-03-29T09:51:14.704Z,1.15
2023-03-29T09:53:41.319Z,0.92
2023-03-29T09:56:08.740Z,1.05
2023-03-29T09:58:40.640Z,1.11
2023-03-29T10:01:12.344Z,0.67
2023-03-29T10:03:49.227Z,1.39
2023-03-29T10:06:17.781Z,1.30
2023-03-29T10:09:03.692Z,1.15
2023-03-29T10:11:34.417Z,0.91
2023-03-29T10:14:26.230Z,0.74
2023-03-29T10:16:59.230Z,0.54
2023-03-29T10:19:35.258Z,0.47
2023-03-29T10:22:18.127Z,0.39
2023-03-29T10:24:55.309Z,0.29
2023-03-29T10:27:25.154Z,0.40
2023-03-29T10:29:54.731Z,0.70
2023-03-29T10:32:37.727Z,0.92
2023-03-29T10:35:13.415Z,1.09
2023-03-29T10:37:43.267Z,1.14
2023-03-29T10:40:25.497Z,1.26
2023-03-29T10:42:54.111Z,1.34
2023-03-29T10:45:27.172Z,1.63
2023-03-29T10:47:56.687Z,1.25
2023-03-29T10:50:23.959Z,1.64
2023-03-29T10:52:51.196Z,1.99
2023-03-29T10:55:20.965Z,2.14
2023-03-29T10:58:09.419Z,1.30
2023-03-29T11:00:57.144Z,1.35
2023-03-29T11:04:04.204Z,1.66
2023-03-29T11:06:59.818Z,2.05
2023-03-29T11:09:38.582Z,1.70
2023-03-29T11:12:45.568Z,1.56
2023-03-29T11:18:42.877Z,2.27
2023-03-29T11:21:34.090Z,2.01
2023-03-29T11:24:18.911Z,2.42
2023-03-29T11:26:53.751Z,2.95
2023-03-29T11:29:28.184Z,3.41
2023-03-29T11:32:00.507Z,2.07
2023-03-29T11:35:03.279Z,2.37
2023-03-29T11:37:42.126Z,2.45
2023-03-29T11:40:36.265Z,2.89
2023-03-29T11:43:13.448Z,3.47
2023-03-29T11:45:46.274Z,3.28
2023-03-29T11:48:23.597Z,3.02
2023-03-29T11:51:27.512Z,2.89
2023-03-29T11:54:04.189Z,2.83
2023-03-29T11:56:44.274Z,2.69
2023-03-29T11:59:42.816Z,2.49
2023-03-29T12:02:42.555Z,3.06
2023-03-29T12:05:21.098Z,3.11
2023-03-29T12:07:58.346Z,3.59
2023-03-29T12:10:36.513Z,3.25
2023-03-29T12:13:26.229Z,2.83
2023-03-29T12:16:07.279Z,2.93
2023-03-29T12:18:45.480Z,2.50
2023-03-29T12:21:27.901Z,2.28
2023-03-29T12:23:54.686Z,2.51
2023-03-29T12:26:40.502Z,2.70
2023-03-29T12:29:37.536Z,3.18
2023-03-29T12:32:26.908Z,3.35
2023-03-29T12:34:53.510Z,3.55
2023-03-29T12:37:23.446Z,3.38
2023-03-29T12:39:55.452Z,3.14
2023-03-29T12:42:26.735Z,2.87
2023-03-29T12:45:00.743Z,3.11
2023-03-29T12:47:34.088Z,2.68
2023-03-29T12:50:02.047Z,3.25
2023-03-29T12:52:33.781Z,3.65
2023-03-29T12:55:12.014Z,3.46
2023-03-29T12:57:43.206Z,3.12
2023-03-29T13:00:28.084Z,3.39
2023-03-29T13:03:05.126Z,3.16
2023-03-29T13:05:39.333Z,3.27
2023-03-29T13:08:36.815Z,3.73
2023-03-29T13:11:06.866Z,3.50
2023-03-29T13:13:39.740Z,3.71
2023-03-29T13:16:34.929Z,3.74
2023-03-29T13:19:34.282Z,3.35
2023-03-29T13:22:42.493Z,3.54
2023-03-29T13:26:18.410Z,4.06
2023-03-29T13:29:00.723Z,3.60
2023-03-29T13:31:52.046Z,4.35
2023-03-29T13:34:34.957Z,4.16
2023-03-29T13:37:42.311Z,3.69
2023-03-29T13:40:31.469Z,4.48
2023-03-29T13:43:40.586Z,4.12
2023-03-29T13:46:43.519Z,4.64
2023-03-29T13:52:29.343Z,4.74
2023-03-29T13:55:46.726Z,4.74
2023-03-29T14:04:52.225Z,3.80
2023-03-29T14:07:26.326Z,3.97
2023-03-29T14:09:55.612Z,4.45
2023-03-29T14:12:41.138Z,5.09
2023-03-29T14:15:24.863Z,5.29
2023-03-29T14:18:01.980Z,5.08
2023-03-29T14:20:32.981Z,6.02
2023-03-29T14:23:10.030Z,5.52
2023-03-29T14:25:42.555Z,4.56
2023-03-29T14:31:36.119Z,5.37
2023-03-29T14:34:28.033Z,5.44
2023-03-29T14:36:54.818Z,5.19
2023-03-29T14:39:28.403Z,4.25
2023-03-29T14:41:59.406Z,4.48
2023-03-29T14:44:30.137Z,5.10
2023-03-29T14:49:50.040Z,3.25
2023-03-29T14:52:19.006Z,3.31
2023-03-29T14:54:50.179Z,4.81
2023-03-29T14:57:22.515Z,6.34
2023-03-29T14:59:58.188Z,6.28
2023-03-29T15:02:32.039Z,5.35
2023-03-29T15:05:04.865Z,6.50
2023-03-29T15:07:39.363Z,7.60
2023-03-29T15:10:12.986Z,6.92
2023-03-29T15:12:45.328Z,6.28
2023-03-29T15:15:16.899Z,7.95
2023-03-29T15:17:50.968Z,8.98
2023-03-29T15:20:33.820Z,9.15
2023-03-29T15:23:10.043Z,8.38
2023-03-29T15:25:45.994Z,6.91
2023-03-29T15:28:30.147Z,6.53
2023-03-29T15:31:16.186Z,8.84
2023-03-29T15:33:50.192Z,8.26
2023-03-29T15:36:22.254Z,7.87
2023-03-29T15:38:53.485Z,5.01
2023-03-29T15:41:20.437Z,8.13
2023-03-29T15:43:50.985Z,8.82
2023-03-29T15:46:18.904Z,9.28
2023-03-29T15:48:45.948Z,9.89
2023-03-29T15:51:16.184Z,10.23
2023-03-29T15:53:43.114Z,9.58
2023-03-29T15:56:17.891Z,10.54
2023-03-29T15:58:44.904Z,8.49
2023-03-29T16:01:23.799Z,9.19
2023-03-29T16:03:51.139Z,9.35
2023-03-29T16:06:19.170Z,8.84
2023-03-29T16:08:46.176Z,7.00
2023-03-29T16:11:12.737Z,8.23
2023-03-29T16:13:39.506Z,8.28
2023-03-29T16:16:07.016Z,7.01
2023-03-29T16:18:33.987Z,7.10
2023-03-29T16:21:03.447Z,5.53
2023-03-29T16:23:30.217Z,4.25
2023-03-29T16:26:02.811Z,3.12
2023-03-29T16:28:29.640Z,2.58
2023-03-29T16:30:56.286Z,2.50
2023-03-29T16:33:28.569Z,2.36
2023-03-29T16:35:58.034Z,2.38
2023-03-29T16:38:42.245Z,2.36
2023-03-29T16:41:14.996Z,2.13
2023-03-29T16:43:42.140Z,2.10
2023-03-29T16:46:17.286Z,2.25
2023-03-29T16:48:51.433Z,1.99
2023-03-29T16:51:18.693Z,1.87
2023-03-29T16:53:48.838Z,1.87
2023-03-29T16:56:15.926Z,1.81
2023-03-29T16:58:42.673Z,1.88
2023-03-29T17:01:21.343Z,1.67
2023-03-29T17:03:48.097Z,1.73
2023-03-29T17:06:21.190Z,1.86
2023-03-29T17:08:51.897Z,1.72
2023-03-29T17:11:24.065Z,1.57
2023-03-29T17:13:50.729Z,1.47
2023-03-29T17:16:20.785Z,1.54
2023-03-29T17:18:51.174Z,1.40
2023-03-29T17:21:19.685Z,1.32
2023-03-29T17:23:46.705Z,1.31
2023-03-29T17:26:15.719Z,1.21
2023-03-29T17:28:47.965Z,1.15
2023-03-29T17:31:15.976Z,0.98
2023-03-29T17:33:42.762Z,0.83
2023-03-29T17:36:09.890Z,0.89
2023-03-29T17:38:41.268Z,0.93
2023-03-29T17:41:08.315Z,0.89
2023-03-29T17:43:40.372Z,0.79
2023-03-29T17:46:11.902Z,0.76
2023-03-29T17:48:39.460Z,0.78
2023-03-29T17:51:10.717Z,0.71
2023-03-29T17:53:37.611Z,0.72
2023-03-29T17:56:04.641Z,0.75
2023-03-29T17:58:33.896Z,0.68
2023-03-29T18:01:16.874Z,0.62
2023-03-29T18:03:43.589Z,0.72
2023-03-29T18:06:10.197Z,0.66
2023-03-29T18:08:43.248Z,0.58
2023-03-29T18:11:14.271Z,0.55
2023-03-29T18:13:43.440Z,0.56
2023-03-29T18:16:10.562Z,0.61
2023-03-29T18:18:41.694Z,0.53
2023-03-29T18:21:10.366Z,0.51
2023-03-29T18:23:43.331Z,0.50
2023-03-29T18:26:10.219Z,0.51
2023-03-29T18:28:40.126Z,0.64
2023-03-29T18:31:09.713Z,0.66
2023-03-29T18:33:39.739Z,0.72
2023-03-29T18:36:13.226Z,0.74
2023-03-29T18:38:44.886Z,0.69
2023-03-29T18:41:13.170Z,0.68
2023-03-29T18:43:48.056Z,0.69
2023-03-29T18:46:20.786Z,0.73
2023-03-29T18:48:47.689Z,0.54
2023-03-29T18:51:18.112Z,0.51
2023-03-29T18:53:44.774Z,0.54
2023-03-29T18:56:14.259Z,0.53
2023-03-29T18:58:41.097Z,0.58
2023-03-29T19:01:14.312Z,0.54
2023-03-29T19:03:41.366Z,0.47
2023-03-29T19:06:08.469Z,0.38
2023-03-29T19:08:41.563Z,0.32
2023-03-29T19:11:11.376Z,0.32
2023-03-29T19:13:40.958Z,0.33
2023-03-29T19:16:10.472Z,0.29
2023-03-29T19:18:39.156Z,0.37
2023-03-29T19:21:05.898Z,0.41
2023-03-29T19:23:32.757Z,0.31
2023-03-29T19:26:06.569Z,0.37
2023-03-29T19:28:38.966Z,0.46
2023-03-29T19:31:09.780Z,0.44
2023-03-29T19:33:40.847Z,0.29
2023-03-29T19:36:13.187Z,0.37
2023-03-29T19:38:47.501Z,0.31
2023-03-29T19:41:21.510Z,0.32
2023-03-29T19:43:48.246Z,0.33
2023-03-29T19:46:19.997Z,0.32
2023-03-29T19:49:04.341Z,0.28
2023-03-29T19:51:48.037Z,0.24
2023-03-29T19:54:17.128Z,0.22
2023-03-29T19:56:46.463Z,0.17
2023-03-29T19:59:17.771Z,0.21
2023-03-29T20:01:51.135Z,0.21
2023-03-29T20:04:20.039Z,0.08
2023-03-29T20:06:46.817Z,-0.05
2023-03-29T20:09:16.087Z,-0.05
2023-03-29T20:11:46.908Z,-0.10
2023-03-29T20:14:14.116Z,0.04
2023-03-29T20:16:41.844Z,0.18
2023-03-29T20:19:14.255Z,0.27
2023-03-29T20:21:42.188Z,0.18
2023-03-29T20:24:09.472Z,0.16
2023-03-29T20:26:39.121Z,0.16
2023-03-29T20:29:06.336Z,0.07
2023-03-29T20:31:34.940Z,-0.02
2023-03-29T20:34:06.320Z,-0.14
2023-03-29T20:36:33.784Z,-0.28
2023-03-29T20:39:01.292Z,-0.32
2023-03-29T20:41:31.689Z,-0.51
2023-03-29T20:44:02.979Z,-0.46
2023-03-29T20:46:38.808Z,-0.50
2023-03-29T20:49:08.943Z,-0.52
2023-03-29T20:51:42.515Z,-0.38
2023-03-29T20:54:11.632Z,-0.46
2023-03-29T20:56:42.365Z,-0.67
2023-03-29T20:59:14.164Z,-0.82
2023-03-29T21:01:43.207Z,-0.86
2023-03-29T21:04:14.585Z,-1.01
2023-03-29T21:06:41.167Z,-1.05
2023-03-29T21:09:10.888Z,-1.14
2023-03-29T21:11:42.811Z,-1.21
2023-03-29T21:14:09.543Z,-1.20
2023-03-29T21:16:36.632Z,-1.28
2023-03-29T21:19:05.339Z,-1.36
2023-03-29T21:21:33.725Z,-1.42
2023-03-29T21:24:00.688Z,-1.46
2023-03-29T21:26:28.166Z,-1.52
2023-03-29T21:28:54.838Z,-1.52
2023-03-29T21:31:21.521Z,-1.60
2023-03-29T21:33:48.192Z,-1.64
2023-03-29T21:36:14.839Z,-1.62
2023-03-29T21:38:43.328Z,-1.65
2023-03-29T21:41:12.832Z,-1.81
2023-03-29T21:43:42.604Z,-1.88
2023-03-29T21:46:12.275Z,-1.86
2023-03-29T21:48:39.077Z,-1.82
2023-03-29T21:51:09.349Z,-1.83
2023-03-29T21:53:39.092Z,-1.89
2023-03-29T21:56:06.650Z,-1.94
2023-03-29T21:58:35.628Z,-1.95
2023-03-29T22:01:07.331Z,-1.95
2023-03-29T22:03:34.221Z,-1.99
2023-03-29T22:06:09.624Z,-2.07
2023-03-29T22:08:44.613Z,-2.00
2023-03-29T22:11:14.405Z,-2.01
2023-03-29T22:13:45.510Z,-2.02
2023-03-29T22:16:19.611Z,-2.08
2023-03-29T22:18:50.506Z,-2.03
2023-03-29T22:21:24.915Z,-2.08
2023-03-29T22:23:55.494Z,-2.11
2023-03-29T22:26:25.135Z,-2.11
2023-03-29T22:28:51.728Z,-2.13
2023-03-29T22:31:21.171Z,-2.19
2023-03-29T22:33:48.048Z,-2.20
2023-03-29T22:36:24.363Z,-2.25
2023-03-29T22:38:56.315Z,-2.31
2023-03-29T22:41:26.144Z,-2.31
2023-03-29T22:43:54.294Z,-2.29
2023-03-29T22:46:21.397Z,-2.43
2023-03-29T22:48:48.216Z,-2.50
2023-03-29T22:51:15.304Z,-2.51
2023-03-29T22:53:42.046Z,-2.51
2023-03-29T22:56:10.975Z,-2.50
2023-03-29T22:58:46.009Z,-2.49
2023-03-29T23:01:13.214Z,-2.59
2023-03-29T23:03:39.942Z,-2.63
2023-03-29T23:06:06.961Z,-2.71
2023-03-29T23:08:35.076Z,-2.75
2023-03-29T23:11:07.782Z,-2.74
2023-03-29T23:13:35.348Z,-2.69
2023-03-29T23:16:03.870Z,-2.73
2023-03-29T23:18:33.761Z,-2.75
2023-03-29T23:21:01.768Z,-2.76
2023-03-29T23:23:31.824Z,-2.84
2023-03-29T23:26:00.853Z,-2.93
2023-03-29T23:28:30.749Z,-2.95
2023-03-29T23:31:18.493Z,-2.86
2023-03-29T23:33:45.544Z,-2.91
2023-03-29T23:36:21.381Z,-2.92
2023-03-29T23:38:54.175Z,-2.98
2023-03-29T23:41:28.380Z,-3.04
2023-03-29T23:43:57.669Z,-3.03
2023-03-29T23:46:28.723Z,-2.91
2023-03-29T23:49:01.775Z,-2.97
2023-03-29T23:51:30.598Z,-3.00
2023-03-29T23:53:57.497Z,-3.07
2023-03-29T23:56:26.953Z,-3.08
2023-03-29T23:58:59.035Z,-3.11
